sensor_id;sensor_type;location;lat;lon;timestamp;temperature;humidity
17200;DHT22;8716;52.268;20.968;2022-07-23T00:02:17;23.00;99.90
17200;DHT22;8716;52.268;20.968;2022-07-23T00:04:45;22.90;99.90
17200;DHT22;8716;52.268;20.968;2022-07-23T00:07:13;22.90;99.90
17200;DHT22;8716;52.268;20.968;2022-07-23T00:09:44;22.80;99.90
17200;DHT22;8716;52.268;20.968;2022-07-23T00:12:13;22.80;99.90
17200;DHT22;8716;52.268;20.968;2022-07-23T00:14:41;22.80;99.90
17200;DHT22;8716;52.268;20.968;2022-07-23T00:17:09;22.80;99.90
17200;DHT22;8716;52.268;20.968;2022-07-23T00:19:38;22.70;99.90
17200;DHT22;8716;52.268;20.968;2022-07-23T00:22:06;22.70;99.90
17200;DHT22;8716;52.268;20.968;2022-07-23T00:24:34;22.70;99.90
17200;DHT22;8716;52.268;20.968;2022-07-23T00:27:02;22.70;99.90
17200;DHT22;8716;52.268;20.968;2022-07-23T00:29:31;22.60;99.90
17200;DHT22;8716;52.268;20.968;2022-07-23T00:31:59;22.60;99.90
17200;DHT22;8716;52.268;20.968;2022-07-23T00:34:27;22.60;99.90
17200;DHT22;8716;52.268;20.968;2022-07-23T00:36:56;22.60;99.90
17200;DHT22;8716;52.268;20.968;2022-07-23T00:39:27;22.60;99.90
17200;DHT22;8716;52.268;20.968;2022-07-23T00:41:55;22.50;99.90
17200;DHT22;8716;52.268;20.968;2022-07-23T00:44:26;22.50;99.90
17200;DHT22;8716;52.268;20.968;2022-07-23T00:46:56;22.50;99.90
17200;DHT22;8716;52.268;20.968;2022-07-23T00:49:27;22.40;99.90
17200;DHT22;8716;52.268;20.968;2022-07-23T00:52:06;22.40;99.90
17200;DHT22;8716;52.268;20.968;2022-07-23T00:54:34;22.40;99.90
17200;DHT22;8716;52.268;20.968;2022-07-23T00:57:03;22.40;99.90
17200;DHT22;8716;52.268;20.968;2022-07-23T00:59:31;22.30;99.90
17200;DHT22;8716;52.268;20.968;2022-07-23T01:01:59;22.30;99.90
17200;DHT22;8716;52.268;20.968;2022-07-23T01:04:27;22.30;99.90
17200;DHT22;8716;52.268;20.968;2022-07-23T01:06:55;22.30;99.90
17200;DHT22;8716;52.268;20.968;2022-07-23T01:09:25;22.30;99.90
17200;DHT22;8716;52.268;20.968;2022-07-23T01:11:54;22.30;99.90
17200;DHT22;8716;52.268;20.968;2022-07-23T01:14:23;22.20;99.90
17200;DHT22;8716;52.268;20.968;2022-07-23T01:16:51;22.20;99.90
17200;DHT22;8716;52.268;20.968;2022-07-23T01:19:20;22.20;99.90
17200;DHT22;8716;52.268;20.968;2022-07-23T01:21:49;22.20;99.90
17200;DHT22;8716;52.268;20.968;2022-07-23T01:24:22;22.10;99.90
17200;DHT22;8716;52.268;20.968;2022-07-23T01:26:58;22.10;99.90
17200;DHT22;8716;52.268;20.968;2022-07-23T01:29:30;22.10;99.90
17200;DHT22;8716;52.268;20.968;2022-07-23T01:32:02;22.10;99.90
17200;DHT22;8716;52.268;20.968;2022-07-23T01:34:31;22.00;99.90
17200;DHT22;8716;52.268;20.968;2022-07-23T01:37:01;22.10;99.90
17200;DHT22;8716;52.268;20.968;2022-07-23T01:39:31;22.10;99.90
17200;DHT22;8716;52.268;20.968;2022-07-23T01:42:01;22.00;99.90
17200;DHT22;8716;52.268;20.968;2022-07-23T01:44:29;22.00;99.90
17200;DHT22;8716;52.268;20.968;2022-07-23T01:46:57;22.00;99.90
17200;DHT22;8716;52.268;20.968;2022-07-23T01:49:26;22.00;99.90
17200;DHT22;8716;52.268;20.968;2022-07-23T01:52:14;21.90;99.90
17200;DHT22;8716;52.268;20.968;2022-07-23T01:54:49;21.90;99.90
17200;DHT22;8716;52.268;20.968;2022-07-23T01:57:17;21.90;99.90
17200;DHT22;8716;52.268;20.968;2022-07-23T01:59:47;21.80;99.90
17200;DHT22;8716;52.268;20.968;2022-07-23T02:02:18;21.80;99.90
17200;DHT22;8716;52.268;20.968;2022-07-23T02:04:47;21.80;99.90
17200;DHT22;8716;52.268;20.968;2022-07-23T02:07:17;21.80;99.90
17200;DHT22;8716;52.268;20.968;2022-07-23T02:09:45;21.80;99.90
17200;DHT22;8716;52.268;20.968;2022-07-23T02:12:17;21.80;99.90
17200;DHT22;8716;52.268;20.968;2022-07-23T02:14:45;21.70;99.90
17200;DHT22;8716;52.268;20.968;2022-07-23T02:17:13;21.70;99.90
17200;DHT22;8716;52.268;20.968;2022-07-23T02:19:41;21.70;99.90
17200;DHT22;8716;52.268;20.968;2022-07-23T02:22:10;21.60;99.90
17200;DHT22;8716;52.268;20.968;2022-07-23T02:24:41;21.60;99.90
17200;DHT22;8716;52.268;20.968;2022-07-23T02:27:09;21.60;99.90
17200;DHT22;8716;52.268;20.968;2022-07-23T02:29:38;21.60;99.90
17200;DHT22;8716;52.268;20.968;2022-07-23T02:32:06;21.60;99.90
17200;DHT22;8716;52.268;20.968;2022-07-23T02:34:38;21.60;99.90
17200;DHT22;8716;52.268;20.968;2022-07-23T02:37:06;21.60;99.90
17200;DHT22;8716;52.268;20.968;2022-07-23T02:39:36;21.60;99.90
17200;DHT22;8716;52.268;20.968;2022-07-23T02:42:04;21.60;99.90
17200;DHT22;8716;52.268;20.968;2022-07-23T02:44:33;21.50;99.90
17200;DHT22;8716;52.268;20.968;2022-07-23T02:47:03;21.50;99.90
17200;DHT22;8716;52.268;20.968;2022-07-23T02:49:32;21.50;99.90
17200;DHT22;8716;52.268;20.968;2022-07-23T02:52:04;21.40;99.90
17200;DHT22;8716;52.268;20.968;2022-07-23T02:54:32;21.40;99.90
17200;DHT22;8716;52.268;20.968;2022-07-23T02:57:02;21.40;99.90
17200;DHT22;8716;52.268;20.968;2022-07-23T02:59:30;21.40;99.90
17200;DHT22;8716;52.268;20.968;2022-07-23T03:01:58;21.40;99.90
17200;DHT22;8716;52.268;20.968;2022-07-23T03:04:28;21.40;99.90
17200;DHT22;8716;52.268;20.968;2022-07-23T03:06:57;21.40;99.90
17200;DHT22;8716;52.268;20.968;2022-07-23T03:09:25;21.30;99.90
17200;DHT22;8716;52.268;20.968;2022-07-23T03:11:53;21.30;99.90
17200;DHT22;8716;52.268;20.968;2022-07-23T03:14:21;21.30;99.90
17200;DHT22;8716;52.268;20.968;2022-07-23T03:16:50;21.30;99.90
17200;DHT22;8716;52.268;20.968;2022-07-23T03:19:20;21.30;99.90
17200;DHT22;8716;52.268;20.968;2022-07-23T03:21:51;21.20;99.90
17200;DHT22;8716;52.268;20.968;2022-07-23T03:24:21;21.30;99.90
17200;DHT22;8716;52.268;20.968;2022-07-23T03:26:50;21.30;99.90
17200;DHT22;8716;52.268;20.968;2022-07-23T03:29:21;21.30;99.90
17200;DHT22;8716;52.268;20.968;2022-07-23T03:31:49;21.30;99.90
17200;DHT22;8716;52.268;20.968;2022-07-23T03:34:17;21.40;99.90
17200;DHT22;8716;52.268;20.968;2022-07-23T03:36:46;21.40;99.90
17200;DHT22;8716;52.268;20.968;2022-07-23T03:39:15;21.50;99.90
17200;DHT22;8716;52.268;20.968;2022-07-23T03:41:44;21.50;99.90
17200;DHT22;8716;52.268;20.968;2022-07-23T03:44:12;21.50;99.90
17200;DHT22;8716;52.268;20.968;2022-07-23T03:46:41;21.50;99.90
17200;DHT22;8716;52.268;20.968;2022-07-23T03:49:10;21.50;99.90
17200;DHT22;8716;52.268;20.968;2022-07-23T03:51:38;21.60;99.90
17200;DHT22;8716;52.268;20.968;2022-07-23T03:54:06;21.60;99.90
17200;DHT22;8716;52.268;20.968;2022-07-23T03:56:36;21.60;99.90
17200;DHT22;8716;52.268;20.968;2022-07-23T03:59:04;21.60;99.90
17200;DHT22;8716;52.268;20.968;2022-07-23T04:01:33;21.70;99.90
17200;DHT22;8716;52.268;20.968;2022-07-23T04:04:01;21.70;99.90
17200;DHT22;8716;52.268;20.968;2022-07-23T04:06:29;21.80;99.90
17200;DHT22;8716;52.268;20.968;2022-07-23T04:08:59;21.80;99.90
17200;DHT22;8716;52.268;20.968;2022-07-23T04:11:29;21.80;99.90
17200;DHT22;8716;52.268;20.968;2022-07-23T04:13:58;21.90;99.90
17200;DHT22;8716;52.268;20.968;2022-07-23T04:16:26;21.90;99.90
17200;DHT22;8716;52.268;20.968;2022-07-23T04:18:56;22.00;99.90
17200;DHT22;8716;52.268;20.968;2022-07-23T04:21:28;22.00;99.90
17200;DHT22;8716;52.268;20.968;2022-07-23T04:23:56;22.10;99.90
17200;DHT22;8716;52.268;20.968;2022-07-23T04:26:24;22.10;99.90
17200;DHT22;8716;52.268;20.968;2022-07-23T04:28:53;22.10;99.90
17200;DHT22;8716;52.268;20.968;2022-07-23T04:31:22;22.20;99.90
17200;DHT22;8716;52.268;20.968;2022-07-23T04:33:50;22.30;99.90
17200;DHT22;8716;52.268;20.968;2022-07-23T04:36:19;22.40;99.90
17200;DHT22;8716;52.268;20.968;2022-07-23T04:38:47;22.40;99.90
17200;DHT22;8716;52.268;20.968;2022-07-23T04:41:21;22.40;99.90
17200;DHT22;8716;52.268;20.968;2022-07-23T04:43:49;22.50;99.90
17200;DHT22;8716;52.268;20.968;2022-07-23T04:46:17;22.60;99.90
17200;DHT22;8716;52.268;20.968;2022-07-23T04:48:49;22.70;99.90
17200;DHT22;8716;52.268;20.968;2022-07-23T04:51:17;22.80;99.90
17200;DHT22;8716;52.268;20.968;2022-07-23T04:53:45;23.00;99.90
17200;DHT22;8716;52.268;20.968;2022-07-23T04:56:13;23.00;99.90
17200;DHT22;8716;52.268;20.968;2022-07-23T04:58:42;23.10;99.90
17200;DHT22;8716;52.268;20.968;2022-07-23T05:01:12;23.20;99.90
17200;DHT22;8716;52.268;20.968;2022-07-23T05:03:41;23.30;99.90
17200;DHT22;8716;52.268;20.968;2022-07-23T05:06:10;23.40;99.90
17200;DHT22;8716;52.268;20.968;2022-07-23T05:08:38;23.60;99.90
17200;DHT22;8716;52.268;20.968;2022-07-23T05:11:10;23.90;99.90
17200;DHT22;8716;52.268;20.968;2022-07-23T05:13:38;24.30;99.90
17200;DHT22;8716;52.268;20.968;2022-07-23T05:16:07;24.70;99.90
17200;DHT22;8716;52.268;20.968;2022-07-23T05:18:36;25.30;99.90
17200;DHT22;8716;52.268;20.968;2022-07-23T05:21:05;25.90;99.90
17200;DHT22;8716;52.268;20.968;2022-07-23T05:23:35;26.60;99.90
17200;DHT22;8716;52.268;20.968;2022-07-23T05:26:03;27.40;99.90
17200;DHT22;8716;52.268;20.968;2022-07-23T05:28:32;28.20;99.90
17200;DHT22;8716;52.268;20.968;2022-07-23T05:31:00;29.00;99.90
17200;DHT22;8716;52.268;20.968;2022-07-23T05:33:28;29.90;99.90
17200;DHT22;8716;52.268;20.968;2022-07-23T05:36:00;30.70;99.90
17200;DHT22;8716;52.268;20.968;2022-07-23T05:38:32;31.60;99.90
17200;DHT22;8716;52.268;20.968;2022-07-23T05:41:04;32.40;99.90
17200;DHT22;8716;52.268;20.968;2022-07-23T05:43:32;33.10;99.90
17200;DHT22;8716;52.268;20.968;2022-07-23T05:46:06;33.70;99.90
17200;DHT22;8716;52.268;20.968;2022-07-23T05:48:37;34.30;97.20
17200;DHT22;8716;52.268;20.968;2022-07-23T05:51:11;34.70;96.20
17200;DHT22;8716;52.268;20.968;2022-07-23T05:53:39;35.10;94.60
17200;DHT22;8716;52.268;20.968;2022-07-23T05:56:17;35.60;92.90
17200;DHT22;8716;52.268;20.968;2022-07-23T05:58:48;35.90;91.30
17200;DHT22;8716;52.268;20.968;2022-07-23T06:01:18;36.40;90.10
17200;DHT22;8716;52.268;20.968;2022-07-23T06:04:07;36.80;88.50
17200;DHT22;8716;52.268;20.968;2022-07-23T06:06:38;37.20;83.30
17200;DHT22;8716;52.268;20.968;2022-07-23T06:09:08;37.30;82.00
17200;DHT22;8716;52.268;20.968;2022-07-23T06:11:39;37.30;81.30
17200;DHT22;8716;52.268;20.968;2022-07-23T06:14:07;37.50;80.30
17200;DHT22;8716;52.268;20.968;2022-07-23T06:16:46;37.70;77.50
17200;DHT22;8716;52.268;20.968;2022-07-23T06:19:15;37.90;77.50
17200;DHT22;8716;52.268;20.968;2022-07-23T06:21:44;38.10;76.80
17200;DHT22;8716;52.268;20.968;2022-07-23T06:24:15;38.50;76.30
17200;DHT22;8716;52.268;20.968;2022-07-23T06:26:47;39.00;73.90
17200;DHT22;8716;52.268;20.968;2022-07-23T06:29:18;38.90;71.80
17200;DHT22;8716;52.268;20.968;2022-07-23T06:31:46;38.50;71.80
17200;DHT22;8716;52.268;20.968;2022-07-23T06:34:14;38.20;72.60
17200;DHT22;8716;52.268;20.968;2022-07-23T06:36:42;38.20;72.20
17200;DHT22;8716;52.268;20.968;2022-07-23T06:39:11;37.90;72.60
17200;DHT22;8716;52.268;20.968;2022-07-23T06:41:46;37.50;72.30
17200;DHT22;8716;52.268;20.968;2022-07-23T06:44:18;37.00;72.60
17200;DHT22;8716;52.268;20.968;2022-07-23T06:46:47;36.40;73.80
17200;DHT22;8716;52.268;20.968;2022-07-23T06:49:16;36.00;74.90
17200;DHT22;8716;52.268;20.968;2022-07-23T06:51:44;35.70;76.10
17200;DHT22;8716;52.268;20.968;2022-07-23T06:54:12;35.60;76.80
17200;DHT22;8716;52.268;20.968;2022-07-23T06:56:43;35.80;75.50
17200;DHT22;8716;52.268;20.968;2022-07-23T06:59:12;35.90;74.80
17200;DHT22;8716;52.268;20.968;2022-07-23T07:01:43;36.00;75.30
17200;DHT22;8716;52.268;20.968;2022-07-23T07:04:12;36.30;74.20
17200;DHT22;8716;52.268;20.968;2022-07-23T07:06:40;36.50;74.10
17200;DHT22;8716;52.268;20.968;2022-07-23T07:09:08;36.80;73.80
17200;DHT22;8716;52.268;20.968;2022-07-23T07:11:36;37.20;73.30
17200;DHT22;8716;52.268;20.968;2022-07-23T07:14:04;37.60;72.10
17200;DHT22;8716;52.268;20.968;2022-07-23T07:16:34;37.90;70.60
17200;DHT22;8716;52.268;20.968;2022-07-23T07:19:03;38.40;70.50
17200;DHT22;8716;52.268;20.968;2022-07-23T07:21:32;39.10;69.10
17200;DHT22;8716;52.268;20.968;2022-07-23T07:24:00;39.60;66.80
17200;DHT22;8716;52.268;20.968;2022-07-23T07:26:28;39.80;65.70
17200;DHT22;8716;52.268;20.968;2022-07-23T07:28:58;40.00;66.10
17200;DHT22;8716;52.268;20.968;2022-07-23T07:31:26;40.20;64.80
17200;DHT22;8716;52.268;20.968;2022-07-23T07:33:55;40.30;64.20
17200;DHT22;8716;52.268;20.968;2022-07-23T07:36:24;40.50;62.80
17200;DHT22;8716;52.268;20.968;2022-07-23T07:38:52;40.60;63.60
17200;DHT22;8716;52.268;20.968;2022-07-23T07:41:20;41.20;62.70
17200;DHT22;8716;52.268;20.968;2022-07-23T07:43:50;41.70;61.00
17200;DHT22;8716;52.268;20.968;2022-07-23T07:46:19;42.10;60.40
17200;DHT22;8716;52.268;20.968;2022-07-23T07:48:47;42.80;59.20
17200;DHT22;8716;52.268;20.968;2022-07-23T07:51:21;43.40;58.50
17200;DHT22;8716;52.268;20.968;2022-07-23T07:53:51;43.80;57.60
17200;DHT22;8716;52.268;20.968;2022-07-23T07:56:20;44.10;56.00
17200;DHT22;8716;52.268;20.968;2022-07-23T07:58:48;44.20;55.60
17200;DHT22;8716;52.268;20.968;2022-07-23T08:01:17;44.70;55.50
17200;DHT22;8716;52.268;20.968;2022-07-23T08:03:46;44.80;54.10
17200;DHT22;8716;52.268;20.968;2022-07-23T08:06:17;44.80;54.10
17200;DHT22;8716;52.268;20.968;2022-07-23T08:08:48;45.00;53.30
17200;DHT22;8716;52.268;20.968;2022-07-23T08:11:18;45.30;52.70
17200;DHT22;8716;52.268;20.968;2022-07-23T08:13:47;45.60;53.40
17200;DHT22;8716;52.268;20.968;2022-07-23T08:16:18;46.00;52.50
17200;DHT22;8716;52.268;20.968;2022-07-23T08:18:47;46.40;52.40
17200;DHT22;8716;52.268;20.968;2022-07-23T08:21:15;46.50;50.90
17200;DHT22;8716;52.268;20.968;2022-07-23T08:23:43;46.90;50.70
17200;DHT22;8716;52.268;20.968;2022-07-23T08:26:13;46.90;50.20
17200;DHT22;8716;52.268;20.968;2022-07-23T08:28:41;47.00;50.00
17200;DHT22;8716;52.268;20.968;2022-07-23T08:31:09;47.00;49.90
17200;DHT22;8716;52.268;20.968;2022-07-23T08:33:38;47.40;49.70
17200;DHT22;8716;52.268;20.968;2022-07-23T08:36:07;47.50;49.10
17200;DHT22;8716;52.268;20.968;2022-07-23T08:38:35;47.50;48.90
17200;DHT22;8716;52.268;20.968;2022-07-23T08:41:04;47.30;48.40
17200;DHT22;8716;52.268;20.968;2022-07-23T08:43:36;47.10;48.40
17200;DHT22;8716;52.268;20.968;2022-07-23T08:46:04;47.00;48.60
17200;DHT22;8716;52.268;20.968;2022-07-23T08:48:34;46.80;48.50
17200;DHT22;8716;52.268;20.968;2022-07-23T08:51:06;46.90;48.70
17200;DHT22;8716;52.268;20.968;2022-07-23T08:53:35;47.10;48.80
17200;DHT22;8716;52.268;20.968;2022-07-23T08:56:05;47.30;48.20
17200;DHT22;8716;52.268;20.968;2022-07-23T08:58:37;47.20;47.60
17200;DHT22;8716;52.268;20.968;2022-07-23T09:01:05;47.00;47.50
17200;DHT22;8716;52.268;20.968;2022-07-23T09:03:35;47.00;48.00
17200;DHT22;8716;52.268;20.968;2022-07-23T09:06:05;47.10;48.10
17200;DHT22;8716;52.268;20.968;2022-07-23T09:08:36;47.00;47.30
17200;DHT22;8716;52.268;20.968;2022-07-23T09:11:05;46.90;47.60
17200;DHT22;8716;52.268;20.968;2022-07-23T09:13:38;47.00;48.10
17200;DHT22;8716;52.268;20.968;2022-07-23T09:16:16;47.00;47.50
17200;DHT22;8716;52.268;20.968;2022-07-23T09:18:49;46.90;47.60
17200;DHT22;8716;52.268;20.968;2022-07-23T09:21:20;46.80;47.60
17200;DHT22;8716;52.268;20.968;2022-07-23T09:23:51;46.80;47.50
17200;DHT22;8716;52.268;20.968;2022-07-23T09:26:31;46.80;46.70
17200;DHT22;8716;52.268;20.968;2022-07-23T09:29:10;46.40;47.10
17200;DHT22;8716;52.268;20.968;2022-07-23T09:31:47;46.00;47.80
17200;DHT22;8716;52.268;20.968;2022-07-23T09:34:21;45.90;47.50
17200;DHT22;8716;52.268;20.968;2022-07-23T09:36:51;45.90;47.00
17200;DHT22;8716;52.268;20.968;2022-07-23T09:39:26;45.60;47.50
17200;DHT22;8716;52.268;20.968;2022-07-23T09:41:57;44.90;47.80
17200;DHT22;8716;52.268;20.968;2022-07-23T09:44:26;44.50;48.50
17200;DHT22;8716;52.268;20.968;2022-07-23T09:46:58;44.20;48.30
17200;DHT22;8716;52.268;20.968;2022-07-23T09:49:27;43.90;48.80
17200;DHT22;8716;52.268;20.968;2022-07-23T09:51:58;43.70;49.70
17200;DHT22;8716;52.268;20.968;2022-07-23T09:54:32;43.60;49.90
17200;DHT22;8716;52.268;20.968;2022-07-23T09:57:04;43.40;49.60
17200;DHT22;8716;52.268;20.968;2022-07-23T09:59:39;43.20;49.60
17200;DHT22;8716;52.268;20.968;2022-07-23T10:02:10;43.10;49.90
17200;DHT22;8716;52.268;20.968;2022-07-23T10:05:01;42.80;50.30
17200;DHT22;8716;52.268;20.968;2022-07-23T10:07:51;42.70;50.30
17200;DHT22;8716;52.268;20.968;2022-07-23T10:10:42;42.50;51.10
17200;DHT22;8716;52.268;20.968;2022-07-23T10:13:32;42.30;51.40
17200;DHT22;8716;52.268;20.968;2022-07-23T10:16:21;42.00;50.80
17200;DHT22;8716;52.268;20.968;2022-07-23T10:18:54;41.60;51.40
17200;DHT22;8716;52.268;20.968;2022-07-23T10:21:26;41.50;51.40
17200;DHT22;8716;52.268;20.968;2022-07-23T10:24:08;41.60;51.80
17200;DHT22;8716;52.268;20.968;2022-07-23T10:26:51;41.50;51.30
17200;DHT22;8716;52.268;20.968;2022-07-23T10:29:29;41.30;51.80
17200;DHT22;8716;52.268;20.968;2022-07-23T10:32:12;41.30;51.90
17200;DHT22;8716;52.268;20.968;2022-07-23T10:34:52;41.10;51.70
17200;DHT22;8716;52.268;20.968;2022-07-23T10:37:28;40.90;52.10
17200;DHT22;8716;52.268;20.968;2022-07-23T10:40:10;40.70;52.50
17200;DHT22;8716;52.268;20.968;2022-07-23T10:42:39;40.60;52.50
17200;DHT22;8716;52.268;20.968;2022-07-23T10:45:28;40.30;52.10
17200;DHT22;8716;52.268;20.968;2022-07-23T10:48:14;40.00;52.50
17200;DHT22;8716;52.268;20.968;2022-07-23T10:50:42;39.90;52.50
17200;DHT22;8716;52.268;20.968;2022-07-23T10:53:16;39.80;53.80
17200;DHT22;8716;52.268;20.968;2022-07-23T10:55:47;39.90;53.10
17200;DHT22;8716;52.268;20.968;2022-07-23T10:58:23;39.80;53.50
17200;DHT22;8716;52.268;20.968;2022-07-23T11:01:32;39.70;53.20
17200;DHT22;8716;52.268;20.968;2022-07-23T11:04:03;39.40;53.20
17200;DHT22;8716;52.268;20.968;2022-07-23T11:07:06;39.20;52.90
17200;DHT22;8716;52.268;20.968;2022-07-23T11:09:39;39.20;53.60
17200;DHT22;8716;52.268;20.968;2022-07-23T11:12:34;39.10;54.00
17200;DHT22;8716;52.268;20.968;2022-07-23T11:15:07;39.10;53.90
17200;DHT22;8716;52.268;20.968;2022-07-23T11:17:37;39.00;54.00
17200;DHT22;8716;52.268;20.968;2022-07-23T11:20:20;38.90;54.30
17200;DHT22;8716;52.268;20.968;2022-07-23T11:22:51;38.70;54.00
17200;DHT22;8716;52.268;20.968;2022-07-23T11:25:34;38.70;54.40
17200;DHT22;8716;52.268;20.968;2022-07-23T11:28:16;38.60;54.70
17200;DHT22;8716;52.268;20.968;2022-07-23T11:30:47;38.50;54.70
17200;DHT22;8716;52.268;20.968;2022-07-23T11:33:17;38.50;55.20
17200;DHT22;8716;52.268;20.968;2022-07-23T11:36:01;38.50;54.80
17200;DHT22;8716;52.268;20.968;2022-07-23T11:38:31;38.40;54.80
17200;DHT22;8716;52.268;20.968;2022-07-23T11:41:00;38.40;54.60
17200;DHT22;8716;52.268;20.968;2022-07-23T11:43:28;38.30;54.80
17200;DHT22;8716;52.268;20.968;2022-07-23T11:45:58;38.20;54.90
17200;DHT22;8716;52.268;20.968;2022-07-23T11:48:28;38.10;54.60
17200;DHT22;8716;52.268;20.968;2022-07-23T11:50:58;38.10;54.30
17200;DHT22;8716;52.268;20.968;2022-07-23T11:53:27;37.90;54.90
17200;DHT22;8716;52.268;20.968;2022-07-23T11:56:03;37.90;55.30
17200;DHT22;8716;52.268;20.968;2022-07-23T11:58:32;37.80;55.50
17200;DHT22;8716;52.268;20.968;2022-07-23T12:01:03;37.70;56.00
17200;DHT22;8716;52.268;20.968;2022-07-23T12:03:31;37.70;56.20
17200;DHT22;8716;52.268;20.968;2022-07-23T12:06:01;37.60;55.90
17200;DHT22;8716;52.268;20.968;2022-07-23T12:08:29;37.50;55.60
17200;DHT22;8716;52.268;20.968;2022-07-23T12:10:57;37.50;55.70
17200;DHT22;8716;52.268;20.968;2022-07-23T12:13:25;37.50;55.80
17200;DHT22;8716;52.268;20.968;2022-07-23T12:15:57;37.50;56.10
17200;DHT22;8716;52.268;20.968;2022-07-23T12:18:26;37.30;56.20
17200;DHT22;8716;52.268;20.968;2022-07-23T12:20:57;37.20;56.10
17200;DHT22;8716;52.268;20.968;2022-07-23T12:23:32;37.10;57.10
17200;DHT22;8716;52.268;20.968;2022-07-23T12:26:02;37.00;57.00
17200;DHT22;8716;52.268;20.968;2022-07-23T12:28:31;36.90;57.30
17200;DHT22;8716;52.268;20.968;2022-07-23T12:31:00;36.90;57.30
17200;DHT22;8716;52.268;20.968;2022-07-23T12:33:31;36.90;57.30
17200;DHT22;8716;52.268;20.968;2022-07-23T12:36:04;36.90;57.00
17200;DHT22;8716;52.268;20.968;2022-07-23T12:38:39;36.80;57.30
17200;DHT22;8716;52.268;20.968;2022-07-23T12:41:08;36.80;57.00
17200;DHT22;8716;52.268;20.968;2022-07-23T12:43:39;36.70;56.90
17200;DHT22;8716;52.268;20.968;2022-07-23T12:46:08;36.70;56.80
17200;DHT22;8716;52.268;20.968;2022-07-23T12:48:50;36.70;56.90
17200;DHT22;8716;52.268;20.968;2022-07-23T12:51:25;36.60;57.00
17200;DHT22;8716;52.268;20.968;2022-07-23T12:53:57;36.60;56.90
17200;DHT22;8716;52.268;20.968;2022-07-23T12:56:28;36.50;57.20
17200;DHT22;8716;52.268;20.968;2022-07-23T12:58:57;36.50;56.80
17200;DHT22;8716;52.268;20.968;2022-07-23T13:01:32;36.40;56.40
17200;DHT22;8716;52.268;20.968;2022-07-23T13:04:02;36.30;56.60
17200;DHT22;8716;52.268;20.968;2022-07-23T13:06:42;36.20;56.80
17200;DHT22;8716;52.268;20.968;2022-07-23T13:09:21;36.10;56.60
17200;DHT22;8716;52.268;20.968;2022-07-23T13:12:17;36.10;56.70
17200;DHT22;8716;52.268;20.968;2022-07-23T13:14:51;36.00;57.40
17200;DHT22;8716;52.268;20.968;2022-07-23T13:17:19;36.00;57.80
17200;DHT22;8716;52.268;20.968;2022-07-23T13:19:52;36.00;57.70
17200;DHT22;8716;52.268;20.968;2022-07-23T13:22:26;35.90;57.50
17200;DHT22;8716;52.268;20.968;2022-07-23T13:25:08;35.90;57.40
17200;DHT22;8716;52.268;20.968;2022-07-23T13:27:42;35.80;58.00
17200;DHT22;8716;52.268;20.968;2022-07-23T13:30:18;35.80;58.00
17200;DHT22;8716;52.268;20.968;2022-07-23T13:32:50;35.80;58.10
17200;DHT22;8716;52.268;20.968;2022-07-23T13:35:25;35.80;58.50
17200;DHT22;8716;52.268;20.968;2022-07-23T13:37:58;35.80;58.40
17200;DHT22;8716;52.268;20.968;2022-07-23T13:40:28;35.70;59.00
17200;DHT22;8716;52.268;20.968;2022-07-23T13:43:00;35.70;59.30
17200;DHT22;8716;52.268;20.968;2022-07-23T13:45:38;35.70;58.80
17200;DHT22;8716;52.268;20.968;2022-07-23T13:48:06;35.60;59.10
17200;DHT22;8716;52.268;20.968;2022-07-23T13:50:36;35.60;59.10
17200;DHT22;8716;52.268;20.968;2022-07-23T13:53:06;35.70;59.10
17200;DHT22;8716;52.268;20.968;2022-07-23T13:55:42;35.70;58.50
17200;DHT22;8716;52.268;20.968;2022-07-23T13:58:15;35.70;58.00
17200;DHT22;8716;52.268;20.968;2022-07-23T14:00:52;35.60;57.70
17200;DHT22;8716;52.268;20.968;2022-07-23T14:03:21;35.60;58.00
17200;DHT22;8716;52.268;20.968;2022-07-23T14:05:51;35.40;58.50
17200;DHT22;8716;52.268;20.968;2022-07-23T14:08:22;35.30;59.00
17200;DHT22;8716;52.268;20.968;2022-07-23T14:10:52;35.20;58.80
17200;DHT22;8716;52.268;20.968;2022-07-23T14:13:25;35.00;59.60
17200;DHT22;8716;52.268;20.968;2022-07-23T14:15:53;34.80;60.70
17200;DHT22;8716;52.268;20.968;2022-07-23T14:18:21;34.60;61.60
17200;DHT22;8716;52.268;20.968;2022-07-23T14:20:49;34.40;62.50
17200;DHT22;8716;52.268;20.968;2022-07-23T14:23:18;34.20;64.70
17200;DHT22;8716;52.268;20.968;2022-07-23T14:25:46;33.90;65.00
17200;DHT22;8716;52.268;20.968;2022-07-23T14:28:20;33.70;64.60
17200;DHT22;8716;52.268;20.968;2022-07-23T14:30:50;33.60;65.90
17200;DHT22;8716;52.268;20.968;2022-07-23T14:33:19;33.40;65.70
17200;DHT22;8716;52.268;20.968;2022-07-23T14:35:48;33.30;65.40
17200;DHT22;8716;52.268;20.968;2022-07-23T14:38:16;33.20;64.90
17200;DHT22;8716;52.268;20.968;2022-07-23T14:40:47;33.00;65.40
17200;DHT22;8716;52.268;20.968;2022-07-23T14:43:19;32.90;66.60
17200;DHT22;8716;52.268;20.968;2022-07-23T14:45:49;32.50;69.10
17200;DHT22;8716;52.268;20.968;2022-07-23T14:48:25;32.00;71.90
17200;DHT22;8716;52.268;20.968;2022-07-23T14:50:53;31.50;73.70
17200;DHT22;8716;52.268;20.968;2022-07-23T14:53:22;31.10;75.30
17200;DHT22;8716;52.268;20.968;2022-07-23T14:56:13;30.60;78.50
17200;DHT22;8716;52.268;20.968;2022-07-23T14:58:49;29.90;82.10
17200;DHT22;8716;52.268;20.968;2022-07-23T15:01:21;29.40;84.00
17200;DHT22;8716;52.268;20.968;2022-07-23T15:03:53;28.90;86.30
17200;DHT22;8716;52.268;20.968;2022-07-23T15:06:31;28.40;88.70
17200;DHT22;8716;52.268;20.968;2022-07-23T15:09:00;28.00;91.00
17200;DHT22;8716;52.268;20.968;2022-07-23T15:11:32;27.50;92.80
17200;DHT22;8716;52.268;20.968;2022-07-23T15:14:07;27.10;94.50
17200;DHT22;8716;52.268;20.968;2022-07-23T15:16:36;26.70;97.60
17200;DHT22;8716;52.268;20.968;2022-07-23T15:19:07;26.30;99.90
17200;DHT22;8716;52.268;20.968;2022-07-23T15:21:35;25.90;99.90
17200;DHT22;8716;52.268;20.968;2022-07-23T15:24:06;25.50;99.90
17200;DHT22;8716;52.268;20.968;2022-07-23T15:26:38;25.20;99.90
17200;DHT22;8716;52.268;20.968;2022-07-23T15:29:10;24.90;99.90
17200;DHT22;8716;52.268;20.968;2022-07-23T15:31:39;24.80;99.90
17200;DHT22;8716;52.268;20.968;2022-07-23T15:34:07;24.60;99.90
17200;DHT22;8716;52.268;20.968;2022-07-23T15:36:39;24.40;99.90
17200;DHT22;8716;52.268;20.968;2022-07-23T15:39:09;24.30;99.90
17200;DHT22;8716;52.268;20.968;2022-07-23T15:41:37;24.20;99.90
17200;DHT22;8716;52.268;20.968;2022-07-23T15:44:14;24.00;99.90
17200;DHT22;8716;52.268;20.968;2022-07-23T15:46:55;24.00;99.90
17200;DHT22;8716;52.268;20.968;2022-07-23T15:49:25;23.90;99.90
17200;DHT22;8716;52.268;20.968;2022-07-23T15:52:02;23.80;99.90
17200;DHT22;8716;52.268;20.968;2022-07-23T15:54:30;23.80;99.90
17200;DHT22;8716;52.268;20.968;2022-07-23T15:57:03;23.70;99.90